sensor_id;sensor_type;location;lat;lon;timestamp;temperature;humidity
27540;DHT22;15906;52.046;4.724;2023-06-14T00:00:47;18.70;90.30
27540;DHT22;15906;52.046;4.724;2023-06-14T00:03:14;18.70;90.50
27540;DHT22;15906;52.046;4.724;2023-06-14T00:05:43;18.60;91.00
27540;DHT22;15906;52.046;4.724;2023-06-14T00:08:09;18.60;91.20
27540;DHT22;15906;52.046;4.724;2023-06-14T00:10:38;18.60;91.70
27540;DHT22;15906;52.046;4.724;2023-06-14T00:13:06;18.60;91.50
27540;DHT22;15906;52.046;4.724;2023-06-14T00:15:35;18.50;91.70
27540;DHT22;15906;52.046;4.724;2023-06-14T00:18:01;18.50;92.00
27540;DHT22;15906;52.046;4.724;2023-06-14T00:20:28;18.50;92.30
27540;DHT22;15906;52.046;4.724;2023-06-14T00:22:54;18.50;92.50
27540;DHT22;15906;52.046;4.724;2023-06-14T00:25:23;18.50;92.70
27540;DHT22;15906;52.046;4.724;2023-06-14T00:27:53;18.30;93.00
27540;DHT22;15906;52.046;4.724;2023-06-14T00:30:18;18.30;93.00
27540;DHT22;15906;52.046;4.724;2023-06-14T00:32:45;18.40;93.40
27540;DHT22;15906;52.046;4.724;2023-06-14T00:35:11;18.30;93.50
27540;DHT22;15906;52.046;4.724;2023-06-14T00:37:36;18.30;93.60
27540;DHT22;15906;52.046;4.724;2023-06-14T00:40:03;18.30;93.60
27540;DHT22;15906;52.046;4.724;2023-06-14T00:42:30;18.20;93.80
27540;DHT22;15906;52.046;4.724;2023-06-14T00:44:55;18.10;93.90
27540;DHT22;15906;52.046;4.724;2023-06-14T00:47:21;18.10;94.30
27540;DHT22;15906;52.046;4.724;2023-06-14T00:49:47;18.20;94.30
27540;DHT22;15906;52.046;4.724;2023-06-14T00:52:14;18.10;94.50
27540;DHT22;15906;52.046;4.724;2023-06-14T00:54:41;18.10;94.60
27540;DHT22;15906;52.046;4.724;2023-06-14T00:57:10;18.00;94.60
27540;DHT22;15906;52.046;4.724;2023-06-14T00:59:47;17.90;94.80
27540;DHT22;15906;52.046;4.724;2023-06-14T01:02:13;17.90;94.90
27540;DHT22;15906;52.046;4.724;2023-06-14T01:04:41;17.90;94.70
27540;DHT22;15906;52.046;4.724;2023-06-14T01:12:40;17.80;94.80
27540;DHT22;15906;52.046;4.724;2023-06-14T01:15:08;17.90;94.60
27540;DHT22;15906;52.046;4.724;2023-06-14T01:17:35;17.90;94.20
27540;DHT22;15906;52.046;4.724;2023-06-14T01:20:02;17.80;94.00
27540;DHT22;15906;52.046;4.724;2023-06-14T01:22:28;17.80;94.30
27540;DHT22;15906;52.046;4.724;2023-06-14T01:24:54;17.90;94.20
27540;DHT22;15906;52.046;4.724;2023-06-14T01:27:24;17.80;94.20
27540;DHT22;15906;52.046;4.724;2023-06-14T01:29:55;17.80;94.40
27540;DHT22;15906;52.046;4.724;2023-06-14T01:32:24;17.70;94.10
27540;DHT22;15906;52.046;4.724;2023-06-14T01:34:50;17.80;94.40
27540;DHT22;15906;52.046;4.724;2023-06-14T01:37:16;17.80;94.10
27540;DHT22;15906;52.046;4.724;2023-06-14T01:39:43;17.80;94.00
27540;DHT22;15906;52.046;4.724;2023-06-14T01:42:10;17.80;93.70
27540;DHT22;15906;52.046;4.724;2023-06-14T01:44:36;17.70;93.90
27540;DHT22;15906;52.046;4.724;2023-06-14T01:47:02;17.70;93.90
27540;DHT22;15906;52.046;4.724;2023-06-14T01:49:28;17.70;93.80
27540;DHT22;15906;52.046;4.724;2023-06-14T01:51:54;17.70;94.00
27540;DHT22;15906;52.046;4.724;2023-06-14T01:54:19;17.70;93.90
27540;DHT22;15906;52.046;4.724;2023-06-14T01:56:45;17.60;94.00
27540;DHT22;15906;52.046;4.724;2023-06-14T01:59:10;17.60;94.20
27540;DHT22;15906;52.046;4.724;2023-06-14T02:01:36;17.60;94.30
27540;DHT22;15906;52.046;4.724;2023-06-14T02:04:02;17.50;93.90
27540;DHT22;15906;52.046;4.724;2023-06-14T02:06:27;17.50;93.30
27540;DHT22;15906;52.046;4.724;2023-06-14T02:08:53;17.40;93.50
27540;DHT22;15906;52.046;4.724;2023-06-14T02:11:19;17.50;93.90
27540;DHT22;15906;52.046;4.724;2023-06-14T02:13:44;17.50;93.60
27540;DHT22;15906;52.046;4.724;2023-06-14T02:16:10;17.40;93.60
27540;DHT22;15906;52.046;4.724;2023-06-14T02:18:36;17.40;93.40
27540;DHT22;15906;52.046;4.724;2023-06-14T02:21:02;17.40;93.40
27540;DHT22;15906;52.046;4.724;2023-06-14T02:23:27;17.30;93.60
27540;DHT22;15906;52.046;4.724;2023-06-14T02:25:53;17.30;93.60
27540;DHT22;15906;52.046;4.724;2023-06-14T02:28:18;17.20;93.70
27540;DHT22;15906;52.046;4.724;2023-06-14T02:30:44;17.20;93.90
27540;DHT22;15906;52.046;4.724;2023-06-14T02:33:09;17.20;94.00
27540;DHT22;15906;52.046;4.724;2023-06-14T02:35:38;17.10;94.10
27540;DHT22;15906;52.046;4.724;2023-06-14T02:38:03;17.00;94.30
27540;DHT22;15906;52.046;4.724;2023-06-14T02:40:29;17.00;94.40
27540;DHT22;15906;52.046;4.724;2023-06-14T02:42:55;17.00;94.50
27540;DHT22;15906;52.046;4.724;2023-06-14T02:45:20;17.00;94.40
27540;DHT22;15906;52.046;4.724;2023-06-14T02:47:46;16.90;94.00
27540;DHT22;15906;52.046;4.724;2023-06-14T02:50:11;16.90;94.10
27540;DHT22;15906;52.046;4.724;2023-06-14T02:52:37;16.80;94.30
27540;DHT22;15906;52.046;4.724;2023-06-14T02:55:03;16.70;94.20
27540;DHT22;15906;52.046;4.724;2023-06-14T02:57:30;16.70;94.40
27540;DHT22;15906;52.046;4.724;2023-06-14T02:59:55;16.70;94.40
27540;DHT22;15906;52.046;4.724;2023-06-14T03:02:21;16.70;94.70
27540;DHT22;15906;52.046;4.724;2023-06-14T03:04:46;16.60;94.50
27540;DHT22;15906;52.046;4.724;2023-06-14T03:07:12;16.60;94.60
27540;DHT22;15906;52.046;4.724;2023-06-14T03:09:38;16.60;94.70
27540;DHT22;15906;52.046;4.724;2023-06-14T03:12:05;16.60;94.80
27540;DHT22;15906;52.046;4.724;2023-06-14T03:14:35;16.60;94.60
27540;DHT22;15906;52.046;4.724;2023-06-14T03:17:01;16.50;94.80
27540;DHT22;15906;52.046;4.724;2023-06-14T03:19:26;16.50;94.90
27540;DHT22;15906;52.046;4.724;2023-06-14T03:21:52;16.40;94.80
27540;DHT22;15906;52.046;4.724;2023-06-14T03:24:19;16.40;94.60
27540;DHT22;15906;52.046;4.724;2023-06-14T03:26:45;16.40;94.50
27540;DHT22;15906;52.046;4.724;2023-06-14T03:29:11;16.40;94.30
27540;DHT22;15906;52.046;4.724;2023-06-14T03:31:56;16.40;94.40
27540;DHT22;15906;52.046;4.724;2023-06-14T03:34:23;16.40;94.60
27540;DHT22;15906;52.046;4.724;2023-06-14T03:36:49;16.40;94.50
27540;DHT22;15906;52.046;4.724;2023-06-14T03:39:14;16.40;94.40
27540;DHT22;15906;52.046;4.724;2023-06-14T03:41:40;16.30;94.50
27540;DHT22;15906;52.046;4.724;2023-06-14T03:44:05;16.40;94.20
27540;DHT22;15906;52.046;4.724;2023-06-14T03:46:31;16.30;94.30
27540;DHT22;15906;52.046;4.724;2023-06-14T03:48:56;16.30;94.70
27540;DHT22;15906;52.046;4.724;2023-06-14T03:51:22;16.30;94.50
27540;DHT22;15906;52.046;4.724;2023-06-14T03:53:48;16.30;94.80
27540;DHT22;15906;52.046;4.724;2023-06-14T03:56:13;16.30;95.30
27540;DHT22;15906;52.046;4.724;2023-06-14T03:58:39;16.30;95.30
27540;DHT22;15906;52.046;4.724;2023-06-14T04:01:04;16.20;95.10
27540;DHT22;15906;52.046;4.724;2023-06-14T04:03:32;16.30;95.20
27540;DHT22;15906;52.046;4.724;2023-06-14T04:05:58;16.30;95.10
27540;DHT22;15906;52.046;4.724;2023-06-14T04:08:25;16.30;95.10
27540;DHT22;15906;52.046;4.724;2023-06-14T04:10:50;16.40;94.90
27540;DHT22;15906;52.046;4.724;2023-06-14T04:13:16;16.40;94.80
27540;DHT22;15906;52.046;4.724;2023-06-14T04:15:42;16.40;94.70
27540;DHT22;15906;52.046;4.724;2023-06-14T04:18:09;16.30;94.70
27540;DHT22;15906;52.046;4.724;2023-06-14T04:20:35;16.30;94.80
27540;DHT22;15906;52.046;4.724;2023-06-14T04:23:16;16.30;95.00
27540;DHT22;15906;52.046;4.724;2023-06-14T04:25:43;16.40;94.90
27540;DHT22;15906;52.046;4.724;2023-06-14T04:28:13;16.30;94.70
27540;DHT22;15906;52.046;4.724;2023-06-14T04:30:39;16.30;95.00
27540;DHT22;15906;52.046;4.724;2023-06-14T04:33:06;16.30;94.90
27540;DHT22;15906;52.046;4.724;2023-06-14T04:35:32;16.40;94.70
27540;DHT22;15906;52.046;4.724;2023-06-14T04:37:58;16.40;94.90
27540;DHT22;15906;52.046;4.724;2023-06-14T04:40:24;16.30;95.10
27540;DHT22;15906;52.046;4.724;2023-06-14T04:42:50;16.30;95.10
27540;DHT22;15906;52.046;4.724;2023-06-14T04:45:16;16.30;94.80
27540;DHT22;15906;52.046;4.724;2023-06-14T04:47:42;16.40;95.20
27540;DHT22;15906;52.046;4.724;2023-06-14T04:50:09;16.30;95.50
27540;DHT22;15906;52.046;4.724;2023-06-14T04:52:36;16.40;95.50
27540;DHT22;15906;52.046;4.724;2023-06-14T04:55:02;16.40;95.50
27540;DHT22;15906;52.046;4.724;2023-06-14T04:57:28;16.40;95.20
27540;DHT22;15906;52.046;4.724;2023-06-14T04:59:54;16.40;95.60
27540;DHT22;15906;52.046;4.724;2023-06-14T05:02:24;16.40;95.90
27540;DHT22;15906;52.046;4.724;2023-06-14T05:04:51;16.40;95.90
27540;DHT22;15906;52.046;4.724;2023-06-14T05:07:16;16.40;96.40
27540;DHT22;15906;52.046;4.724;2023-06-14T05:09:42;16.50;96.20
27540;DHT22;15906;52.046;4.724;2023-06-14T05:12:08;16.40;96.40
27540;DHT22;15906;52.046;4.724;2023-06-14T05:14:34;16.40;96.60
27540;DHT22;15906;52.046;4.724;2023-06-14T05:17:00;16.50;96.20
27540;DHT22;15906;52.046;4.724;2023-06-14T05:19:25;16.50;96.00
27540;DHT22;15906;52.046;4.724;2023-06-14T05:21:51;16.60;95.60
27540;DHT22;15906;52.046;4.724;2023-06-14T05:24:18;16.70;96.00
27540;DHT22;15906;52.046;4.724;2023-06-14T05:26:43;16.70;95.60
27540;DHT22;15906;52.046;4.724;2023-06-14T05:29:09;16.80;96.40
27540;DHT22;15906;52.046;4.724;2023-06-14T05:31:35;16.80;95.90
27540;DHT22;15906;52.046;4.724;2023-06-14T05:34:00;16.80;95.60
27540;DHT22;15906;52.046;4.724;2023-06-14T05:36:26;16.80;95.60
27540;DHT22;15906;52.046;4.724;2023-06-14T05:38:53;16.90;95.40
27540;DHT22;15906;52.046;4.724;2023-06-14T05:41:28;16.90;95.70
27540;DHT22;15906;52.046;4.724;2023-06-14T05:43:55;17.00;95.70
27540;DHT22;15906;52.046;4.724;2023-06-14T05:46:21;17.10;94.90
27540;DHT22;15906;52.046;4.724;2023-06-14T05:48:54;17.20;94.70
27540;DHT22;15906;52.046;4.724;2023-06-14T05:51:20;17.30;94.40
27540;DHT22;15906;52.046;4.724;2023-06-14T05:53:47;17.30;94.30
27540;DHT22;15906;52.046;4.724;2023-06-14T05:56:17;17.40;94.20
27540;DHT22;15906;52.046;4.724;2023-06-14T05:58:46;17.50;94.00
27540;DHT22;15906;52.046;4.724;2023-06-14T06:01:11;17.60;94.10
27540;DHT22;15906;52.046;4.724;2023-06-14T06:03:38;17.60;93.70
27540;DHT22;15906;52.046;4.724;2023-06-14T06:06:04;17.60;94.30
27540;DHT22;15906;52.046;4.724;2023-06-14T06:08:30;17.70;93.90
27540;DHT22;15906;52.046;4.724;2023-06-14T06:10:56;17.80;93.70
27540;DHT22;15906;52.046;4.724;2023-06-14T06:13:22;17.80;93.70
27540;DHT22;15906;52.046;4.724;2023-06-14T06:15:48;18.00;94.20
27540;DHT22;15906;52.046;4.724;2023-06-14T06:18:13;18.10;94.10
27540;DHT22;15906;52.046;4.724;2023-06-14T06:20:39;18.20;94.30
27540;DHT22;15906;52.046;4.724;2023-06-14T06:23:04;18.30;93.20
27540;DHT22;15906;52.046;4.724;2023-06-14T06:25:30;18.50;93.10
27540;DHT22;15906;52.046;4.724;2023-06-14T06:27:57;18.60;91.90
27540;DHT22;15906;52.046;4.724;2023-06-14T06:30:23;18.80;91.40
27540;DHT22;15906;52.046;4.724;2023-06-14T06:32:49;18.90;92.10
27540;DHT22;15906;52.046;4.724;2023-06-14T06:35:14;19.10;91.00
27540;DHT22;15906;52.046;4.724;2023-06-14T06:37:41;19.20;91.30
27540;DHT22;15906;52.046;4.724;2023-06-14T06:40:07;19.40;90.30
27540;DHT22;15906;52.046;4.724;2023-06-14T06:42:34;19.40;90.10
27540;DHT22;15906;52.046;4.724;2023-06-14T06:44:59;19.50;89.60
27540;DHT22;15906;52.046;4.724;2023-06-14T06:47:25;19.70;87.70
27540;DHT22;15906;52.046;4.724;2023-06-14T06:49:51;19.80;89.60
27540;DHT22;15906;52.046;4.724;2023-06-14T06:52:16;19.80;87.50
27540;DHT22;15906;52.046;4.724;2023-06-14T06:54:42;19.90;87.40
27540;DHT22;15906;52.046;4.724;2023-06-14T06:57:08;20.00;86.90
27540;DHT22;15906;52.046;4.724;2023-06-14T06:59:34;20.10;86.80
27540;DHT22;15906;52.046;4.724;2023-06-14T07:01:59;20.30;87.70
27540;DHT22;15906;52.046;4.724;2023-06-14T07:04:25;20.40;84.50
27540;DHT22;15906;52.046;4.724;2023-06-14T07:06:50;20.60;88.20
27540;DHT22;15906;52.046;4.724;2023-06-14T07:09:16;20.60;84.70
27540;DHT22;15906;52.046;4.724;2023-06-14T07:11:46;20.80;84.00
27540;DHT22;15906;52.046;4.724;2023-06-14T07:14:12;20.80;83.00
27540;DHT22;15906;52.046;4.724;2023-06-14T07:16:37;21.00;83.90
27540;DHT22;15906;52.046;4.724;2023-06-14T07:19:03;21.10;83.60
27540;DHT22;15906;52.046;4.724;2023-06-14T07:21:29;21.20;82.50
27540;DHT22;15906;52.046;4.724;2023-06-14T07:23:55;21.30;83.60
27540;DHT22;15906;52.046;4.724;2023-06-14T07:26:21;21.40;83.70
27540;DHT22;15906;52.046;4.724;2023-06-14T07:28:47;21.50;79.80
27540;DHT22;15906;52.046;4.724;2023-06-14T07:31:17;21.70;78.20
27540;DHT22;15906;52.046;4.724;2023-06-14T07:33:44;21.70;78.70
27540;DHT22;15906;52.046;4.724;2023-06-14T07:36:10;21.80;81.70
27540;DHT22;15906;52.046;4.724;2023-06-14T07:38:36;22.10;79.90
27540;DHT22;15906;52.046;4.724;2023-06-14T07:41:02;22.10;80.20
27540;DHT22;15906;52.046;4.724;2023-06-14T07:43:27;22.10;81.00
27540;DHT22;15906;52.046;4.724;2023-06-14T07:45:53;22.30;79.40
27540;DHT22;15906;52.046;4.724;2023-06-14T07:48:19;22.40;77.70
27540;DHT22;15906;52.046;4.724;2023-06-14T07:50:44;22.60;79.90
27540;DHT22;15906;52.046;4.724;2023-06-14T07:53:10;22.70;79.60
27540;DHT22;15906;52.046;4.724;2023-06-14T07:55:35;22.70;75.30
27540;DHT22;15906;52.046;4.724;2023-06-14T07:58:03;22.90;76.90
27540;DHT22;15906;52.046;4.724;2023-06-14T08:00:28;23.00;77.80
27540;DHT22;15906;52.046;4.724;2023-06-14T08:02:54;23.10;75.20
27540;DHT22;15906;52.046;4.724;2023-06-14T08:05:24;23.10;74.60
27540;DHT22;15906;52.046;4.724;2023-06-14T08:07:51;23.30;75.20
27540;DHT22;15906;52.046;4.724;2023-06-14T08:10:17;23.40;75.50
27540;DHT22;15906;52.046;4.724;2023-06-14T08:12:43;23.60;73.10
27540;DHT22;15906;52.046;4.724;2023-06-14T08:15:08;23.60;74.30
27540;DHT22;15906;52.046;4.724;2023-06-14T08:17:34;23.70;73.80
27540;DHT22;15906;52.046;4.724;2023-06-14T08:20:00;23.70;76.00
27540;DHT22;15906;52.046;4.724;2023-06-14T08:22:25;23.80;72.80
27540;DHT22;15906;52.046;4.724;2023-06-14T08:24:53;24.00;73.20
27540;DHT22;15906;52.046;4.724;2023-06-14T08:27:20;23.80;73.70
27540;DHT22;15906;52.046;4.724;2023-06-14T08:29:45;24.00;76.40
27540;DHT22;15906;52.046;4.724;2023-06-14T08:32:12;24.00;71.20
27540;DHT22;15906;52.046;4.724;2023-06-14T08:34:37;24.10;74.00
27540;DHT22;15906;52.046;4.724;2023-06-14T08:37:03;24.20;72.60
27540;DHT22;15906;52.046;4.724;2023-06-14T08:39:29;24.50;69.80
27540;DHT22;15906;52.046;4.724;2023-06-14T08:41:55;24.50;69.80
27540;DHT22;15906;52.046;4.724;2023-06-14T08:44:22;24.60;70.50
27540;DHT22;15906;52.046;4.724;2023-06-14T08:46:48;24.60;72.70
27540;DHT22;15906;52.046;4.724;2023-06-14T08:49:16;24.50;68.30
27540;DHT22;15906;52.046;4.724;2023-06-14T08:51:43;24.60;68.50
27540;DHT22;15906;52.046;4.724;2023-06-14T08:54:10;24.80;70.40
27540;DHT22;15906;52.046;4.724;2023-06-14T08:56:38;25.00;70.10
27540;DHT22;15906;52.046;4.724;2023-06-14T08:59:04;25.20;67.90
27540;DHT22;15906;52.046;4.724;2023-06-14T09:01:33;25.00;66.00
27540;DHT22;15906;52.046;4.724;2023-06-14T09:04:00;25.10;67.10
27540;DHT22;15906;52.046;4.724;2023-06-14T09:06:25;25.10;68.50
27540;DHT22;15906;52.046;4.724;2023-06-14T09:08:54;25.20;67.70
27540;DHT22;15906;52.046;4.724;2023-06-14T09:11:22;25.30;66.70
27540;DHT22;15906;52.046;4.724;2023-06-14T09:13:49;25.50;66.10
27540;DHT22;15906;52.046;4.724;2023-06-14T09:16:15;25.70;65.50
27540;DHT22;15906;52.046;4.724;2023-06-14T09:18:46;25.70;66.00
27540;DHT22;15906;52.046;4.724;2023-06-14T09:21:16;25.60;64.60
27540;DHT22;15906;52.046;4.724;2023-06-14T09:23:43;25.70;66.40
27540;DHT22;15906;52.046;4.724;2023-06-14T09:26:17;25.90;67.70
27540;DHT22;15906;52.046;4.724;2023-06-14T09:28:46;26.00;63.90
27540;DHT22;15906;52.046;4.724;2023-06-14T09:31:14;26.20;63.20
27540;DHT22;15906;52.046;4.724;2023-06-14T09:33:42;25.90;63.60
27540;DHT22;15906;52.046;4.724;2023-06-14T09:36:26;26.00;64.30
27540;DHT22;15906;52.046;4.724;2023-06-14T09:38:57;26.10;63.90
27540;DHT22;15906;52.046;4.724;2023-06-14T09:44:06;26.20;63.30
27540;DHT22;15906;52.046;4.724;2023-06-14T09:46:33;26.20;66.00
27540;DHT22;15906;52.046;4.724;2023-06-14T09:49:00;26.10;62.20
27540;DHT22;15906;52.046;4.724;2023-06-14T09:51:27;26.20;61.80
27540;DHT22;15906;52.046;4.724;2023-06-14T09:53:55;26.30;62.10
27540;DHT22;15906;52.046;4.724;2023-06-14T09:56:29;26.40;61.90
27540;DHT22;15906;52.046;4.724;2023-06-14T09:58:59;26.50;61.50
27540;DHT22;15906;52.046;4.724;2023-06-14T10:01:26;26.50;58.50
27540;DHT22;15906;52.046;4.724;2023-06-14T10:04:07;26.60;61.10
27540;DHT22;15906;52.046;4.724;2023-06-14T10:06:36;26.90;61.90
27540;DHT22;15906;52.046;4.724;2023-06-14T10:09:04;27.20;59.90
27540;DHT22;15906;52.046;4.724;2023-06-14T10:11:33;27.10;55.90
27540;DHT22;15906;52.046;4.724;2023-06-14T10:14:01;26.90;56.10
27540;DHT22;15906;52.046;4.724;2023-06-14T10:16:39;26.80;56.40
27540;DHT22;15906;52.046;4.724;2023-06-14T10:19:18;26.90;57.80
27540;DHT22;15906;52.046;4.724;2023-06-14T10:22:04;27.00;55.70
27540;DHT22;15906;52.046;4.724;2023-06-14T10:24:33;26.90;57.50
27540;DHT22;15906;52.046;4.724;2023-06-14T10:27:00;27.20;57.40
27540;DHT22;15906;52.046;4.724;2023-06-14T10:29:27;27.20;55.40
27540;DHT22;15906;52.046;4.724;2023-06-14T10:31:58;27.00;55.80
27540;DHT22;15906;52.046;4.724;2023-06-14T10:34:25;27.10;56.40
27540;DHT22;15906;52.046;4.724;2023-06-14T10:37:13;27.10;54.60
27540;DHT22;15906;52.046;4.724;2023-06-14T10:39:42;27.20;55.30
27540;DHT22;15906;52.046;4.724;2023-06-14T10:42:08;27.40;54.20
27540;DHT22;15906;52.046;4.724;2023-06-14T10:44:42;27.40;53.60
27540;DHT22;15906;52.046;4.724;2023-06-14T10:47:10;27.40;52.70
27540;DHT22;15906;52.046;4.724;2023-06-14T10:49:44;27.70;56.60
27540;DHT22;15906;52.046;4.724;2023-06-14T10:52:33;27.80;54.70
27540;DHT22;15906;52.046;4.724;2023-06-14T10:55:16;27.80;53.20
27540;DHT22;15906;52.046;4.724;2023-06-14T10:57:54;27.40;54.20
27540;DHT22;15906;52.046;4.724;2023-06-14T11:00:25;27.50;53.50
27540;DHT22;15906;52.046;4.724;2023-06-14T11:05:55;27.80;53.20
27540;DHT22;15906;52.046;4.724;2023-06-14T11:08:56;27.70;51.80
27540;DHT22;15906;52.046;4.724;2023-06-14T11:11:32;27.70;50.90
27540;DHT22;15906;52.046;4.724;2023-06-14T11:14:01;27.70;50.10
27540;DHT22;15906;52.046;4.724;2023-06-14T11:16:28;27.70;51.80
27540;DHT22;15906;52.046;4.724;2023-06-14T11:18:54;27.60;49.70
27540;DHT22;15906;52.046;4.724;2023-06-14T11:21:21;27.60;51.70
27540;DHT22;15906;52.046;4.724;2023-06-14T11:23:50;27.60;51.70
27540;DHT22;15906;52.046;4.724;2023-06-14T11:26:24;27.50;50.70
27540;DHT22;15906;52.046;4.724;2023-06-14T11:28:55;27.90;54.80
27540;DHT22;15906;52.046;4.724;2023-06-14T11:31:27;27.80;51.30
27540;DHT22;15906;52.046;4.724;2023-06-14T11:33:57;27.90;50.70
27540;DHT22;15906;52.046;4.724;2023-06-14T11:36:26;28.00;49.70
27540;DHT22;15906;52.046;4.724;2023-06-14T11:39:07;28.10;50.30
27540;DHT22;15906;52.046;4.724;2023-06-14T11:41:43;28.20;49.50
27540;DHT22;15906;52.046;4.724;2023-06-14T11:44:09;28.30;50.80
27540;DHT22;15906;52.046;4.724;2023-06-14T11:46:35;28.10;47.30
27540;DHT22;15906;52.046;4.724;2023-06-14T11:49:02;27.90;49.90
27540;DHT22;15906;52.046;4.724;2023-06-14T11:51:33;28.20;51.10
27540;DHT22;15906;52.046;4.724;2023-06-14T11:53:59;28.20;50.60
27540;DHT22;15906;52.046;4.724;2023-06-14T11:56:25;28.30;50.80
27540;DHT22;15906;52.046;4.724;2023-06-14T11:58:52;28.60;52.50
27540;DHT22;15906;52.046;4.724;2023-06-14T12:01:19;28.40;50.40
27540;DHT22;15906;52.046;4.724;2023-06-14T12:03:52;28.30;50.70
27540;DHT22;15906;52.046;4.724;2023-06-14T12:06:26;28.10;51.50
27540;DHT22;15906;52.046;4.724;2023-06-14T12:08:58;28.30;50.60
27540;DHT22;15906;52.046;4.724;2023-06-14T12:11:24;28.30;50.40
27540;DHT22;15906;52.046;4.724;2023-06-14T12:13:53;28.50;53.30
27540;DHT22;15906;52.046;4.724;2023-06-14T12:16:18;28.70;53.00
27540;DHT22;15906;52.046;4.724;2023-06-14T12:18:44;28.50;50.50
27540;DHT22;15906;52.046;4.724;2023-06-14T12:21:10;28.30;49.40
27540;DHT22;15906;52.046;4.724;2023-06-14T12:23:43;28.20;50.20
27540;DHT22;15906;52.046;4.724;2023-06-14T12:26:08;28.30;51.90
27540;DHT22;15906;52.046;4.724;2023-06-14T12:28:34;28.20;49.90
27540;DHT22;15906;52.046;4.724;2023-06-14T12:31:00;28.30;52.50
27540;DHT22;15906;52.046;4.724;2023-06-14T12:33:25;28.20;49.80
27540;DHT22;15906;52.046;4.724;2023-06-14T12:35:55;28.00;49.00
27540;DHT22;15906;52.046;4.724;2023-06-14T12:38:21;27.80;49.40
27540;DHT22;15906;52.046;4.724;2023-06-14T12:40:46;27.90;51.60
27540;DHT22;15906;52.046;4.724;2023-06-14T12:43:12;28.00;50.30
27540;DHT22;15906;52.046;4.724;2023-06-14T12:45:37;27.90;52.30
27540;DHT22;15906;52.046;4.724;2023-06-14T12:48:03;27.90;50.50
27540;DHT22;15906;52.046;4.724;2023-06-14T12:50:29;27.90;50.20
27540;DHT22;15906;52.046;4.724;2023-06-14T12:52:54;27.90;51.40
27540;DHT22;15906;52.046;4.724;2023-06-14T13:09:11;28.10;50.90
27540;DHT22;15906;52.046;4.724;2023-06-14T13:12:03;28.10;49.50
27540;DHT22;15906;52.046;4.724;2023-06-14T13:14:34;28.20;50.40
27540;DHT22;15906;52.046;4.724;2023-06-14T13:17:00;28.20;48.30
27540;DHT22;15906;52.046;4.724;2023-06-14T13:19:25;28.10;48.40
27540;DHT22;15906;52.046;4.724;2023-06-14T13:21:51;27.90;48.50
27540;DHT22;15906;52.046;4.724;2023-06-14T13:24:16;27.80;48.70
27540;DHT22;15906;52.046;4.724;2023-06-14T13:26:42;27.80;48.90
27540;DHT22;15906;52.046;4.724;2023-06-14T13:29:08;27.60;48.80
27540;DHT22;15906;52.046;4.724;2023-06-14T13:31:33;27.70;50.90
27540;DHT22;15906;52.046;4.724;2023-06-14T13:33:59;27.70;50.50
27540;DHT22;15906;52.046;4.724;2023-06-14T13:36:25;27.80;50.90
27540;DHT22;15906;52.046;4.724;2023-06-14T13:38:50;27.80;52.00
27540;DHT22;15906;52.046;4.724;2023-06-14T13:41:18;27.80;51.40
27540;DHT22;15906;52.046;4.724;2023-06-14T13:43:43;27.60;51.20
27540;DHT22;15906;52.046;4.724;2023-06-14T13:46:09;27.60;51.30
27540;DHT22;15906;52.046;4.724;2023-06-14T13:48:34;27.50;51.80
27540;DHT22;15906;52.046;4.724;2023-06-14T13:51:00;27.60;52.40
27540;DHT22;15906;52.046;4.724;2023-06-14T13:53:26;27.60;52.60
27540;DHT22;15906;52.046;4.724;2023-06-14T13:55:52;27.70;54.30
27540;DHT22;15906;52.046;4.724;2023-06-14T13:58:18;27.80;51.50
27540;DHT22;15906;52.046;4.724;2023-06-14T14:00:44;27.80;50.50
27540;DHT22;15906;52.046;4.724;2023-06-14T14:03:10;27.50;49.60
27540;DHT22;15906;52.046;4.724;2023-06-14T14:05:36;27.50;52.10
27540;DHT22;15906;52.046;4.724;2023-06-14T14:08:02;27.60;51.30
27540;DHT22;15906;52.046;4.724;2023-06-14T14:10:28;27.40;50.20
27540;DHT22;15906;52.046;4.724;2023-06-14T14:12:53;27.30;49.70
27540;DHT22;15906;52.046;4.724;2023-06-14T14:15:20;27.00;49.90
27540;DHT22;15906;52.046;4.724;2023-06-14T14:17:46;27.20;50.80
27540;DHT22;15906;52.046;4.724;2023-06-14T14:20:12;27.20;50.50
27540;DHT22;15906;52.046;4.724;2023-06-14T14:22:43;27.20;50.60
27540;DHT22;15906;52.046;4.724;2023-06-14T14:25:09;27.30;50.70
27540;DHT22;15906;52.046;4.724;2023-06-14T14:27:36;27.00;51.30
27540;DHT22;15906;52.046;4.724;2023-06-14T14:30:02;26.90;53.10
27540;DHT22;15906;52.046;4.724;2023-06-14T14:32:28;26.80;52.40
27540;DHT22;15906;52.046;4.724;2023-06-14T14:34:54;26.70;52.10
27540;DHT22;15906;52.046;4.724;2023-06-14T14:37:19;26.70;51.60
27540;DHT22;15906;52.046;4.724;2023-06-14T14:39:45;26.70;52.00
27540;DHT22;15906;52.046;4.724;2023-06-14T14:42:11;26.60;52.30
27540;DHT22;15906;52.046;4.724;2023-06-14T14:44:38;26.50;52.80
27540;DHT22;15906;52.046;4.724;2023-06-14T14:47:04;26.60;54.60
27540;DHT22;15906;52.046;4.724;2023-06-14T14:49:31;26.60;52.70
27540;DHT22;15906;52.046;4.724;2023-06-14T14:51:56;26.60;53.00
27540;DHT22;15906;52.046;4.724;2023-06-14T14:54:22;26.50;51.70
27540;DHT22;15906;52.046;4.724;2023-06-14T14:56:48;26.40;52.00
27540;DHT22;15906;52.046;4.724;2023-06-14T14:59:14;26.30;52.70
27540;DHT22;15906;52.046;4.724;2023-06-14T15:01:40;26.30;52.70
27540;DHT22;15906;52.046;4.724;2023-06-14T15:04:05;26.10;51.40
27540;DHT22;15906;52.046;4.724;2023-06-14T15:06:31;26.00;51.40
27540;DHT22;15906;52.046;4.724;2023-06-14T15:09:01;26.00;52.40
27540;DHT22;15906;52.046;4.724;2023-06-14T15:11:26;26.10;51.70
27540;DHT22;15906;52.046;4.724;2023-06-14T15:13:52;26.00;51.90
27540;DHT22;15906;52.046;4.724;2023-06-14T15:16:18;25.90;51.00
27540;DHT22;15906;52.046;4.724;2023-06-14T15:18:43;25.90;51.00
27540;DHT22;15906;52.046;4.724;2023-06-14T15:21:09;25.80;51.50
27540;DHT22;15906;52.046;4.724;2023-06-14T15:23:34;25.80;52.70
27540;DHT22;15906;52.046;4.724;2023-06-14T15:26:00;25.70;50.90
27540;DHT22;15906;52.046;4.724;2023-06-14T15:28:25;25.60;50.90
27540;DHT22;15906;52.046;4.724;2023-06-14T15:30:55;25.50;50.40
27540;DHT22;15906;52.046;4.724;2023-06-14T15:33:20;25.40;51.70
27540;DHT22;15906;52.046;4.724;2023-06-14T15:35:46;25.30;52.00
27540;DHT22;15906;52.046;4.724;2023-06-14T15:38:12;25.20;52.40
27540;DHT22;15906;52.046;4.724;2023-06-14T15:40:37;25.20;52.30
27540;DHT22;15906;52.046;4.724;2023-06-14T15:43:03;25.30;52.30
27540;DHT22;15906;52.046;4.724;2023-06-14T15:45:29;25.30;52.10
27540;DHT22;15906;52.046;4.724;2023-06-14T15:47:54;25.30;53.90
27540;DHT22;15906;52.046;4.724;2023-06-14T15:50:20;25.40;52.90
27540;DHT22;15906;52.046;4.724;2023-06-14T15:52:46;25.40;52.00
27540;DHT22;15906;52.046;4.724;2023-06-14T15:55:12;25.30;52.50